Nearby METAR Reports

 

KBMG - Bloomington, Indiana, USA
Distance from station: SSE 11mi, 18km
Updated: Wed, 20-Jun-2018 11:53am EDT
Mostly cloudy
Mostly cloudy
 Wind from W
Wind: W 7 mph , 11 km/h
Temperature: 81°F , 27°C
Heat Index: 86°F , 30°C
Dew Point: 73°F , 23°C
Humidity: 79%
Barometer: 29.91 inHg , 1012.9 hPa
Clouds: Mostly cloudy
Visibility: 10 miles , 16 km
Cloud details: Mostly cloudy 2200 ft
2018/06/20 15:53 KBMG 201553Z 27006KT 10SM BKN022 27/23 A2991 RMK AO2 SLP121 T02670228
KHUF - Terre Haute, Indiana, USA
Distance from station: WNW 34mi, 54km
Updated: Wed, 20-Jun-2018 12:28pm EDT
Partly cloudy
Partly cloudy
 Wind from WSW
Wind: WSW 7 mph , 11 km/h
Temperature: 79°F , 26°C
Dew Point: 72°F , 22°C
Humidity: 79%
Barometer: 29.91 inHg , 1012.9 hPa
Clouds: Partly cloudy
Visibility: 10 miles , 16 km
Cloud details: Partly cloudy 1800 ft
2018/06/20 16:28 KHUF 201628Z 24006KT 10SM SCT018 26/22 A2991 RMK AO2 T02560217
 
KIND - Indianapolis, Indiana, USA
Distance from station: NE 36mi, 58km
Updated: Wed, 20-Jun-2018 11:54am EDT
Mostly cloudy
Mostly cloudy
 Wind from W
Wind: W 13 mph , 20 km/h
Temperature: 81°F , 27°C
Heat Index: 85°F , 29°C
Dew Point: 70°F , 21°C
Humidity: 70%
Barometer: 29.89 inHg , 1012.2 hPa
Clouds: Mostly cloudy
Visibility: 10 miles , 16 km
Cloud details: Mostly cloudy 2100 ft
Mostly cloudy 3000 ft
Mostly cloudy 14000 ft
2018/06/20 15:54 KIND 201554Z 28011KT 10SM BKN021 BKN030 BKN140 27/21 A2989 RMK AO2 SLP115 T02670211
KBAK - Columbus/Balkala, Indiana, USA
Distance from station: E 43mi, 69km
Updated: Wed, 20-Jun-2018 11:45am EDT
Partly cloudy
Partly cloudy
 Wind from W
Wind: W 12 mph , 19 km/h
Temperature: 82°F , 28°C
Heat Index: 84°F , 29°C
Dew Point: 66°F , 19°C
Humidity: 58%
Barometer: 29.90 inHg , 1012.5 hPa
Clouds: Partly cloudy
Visibility: 10 miles , 16 km
Cloud details: Partly cloudy 2400 ft
Partly cloudy 3300 ft
2018/06/20 15:45 KBAK 201545Z 27010KT 10SM SCT024 SCT033 28/19 A2990
 
KEYE - Indianapolis, Indiana, USA
Distance from station: NNE 43mi, 69km
Updated: Wed, 20-Jun-2018 11:53am EDT
Overcast
Overcast
 Wind from W
Wind: W 6 mph , 9 km/h
Temperature: 81°F , 27°C
Heat Index: 85°F , 29°C
Dew Point: 70°F , 21°C
Humidity: 70%
Barometer: 29.89 inHg , 1012.2 hPa
Clouds: Overcast
Visibility: 10 miles , 16 km
Cloud details: Partly cloudy 2200 ft
Overcast 2600 ft
2018/06/20 15:53 KEYE 201553Z AUTO 28005KT 10SM SCT022 OVC026 27/21 A2989 RMK AO2 SLP114 T02670206
KDCY - Daviess County, Indiana, USA
Distance from station: SSW 47mi, 76km
Updated: Wed, 20-Jun-2018 12:35pm EDT
Mostly cloudy
Mostly cloudy
 Wind from WNW
Wind: WNW 7 mph , 11 km/h
Temperature: 82°F , 28°C
Heat Index: 86°F , 30°C
Dew Point: 70°F , 21°C
Humidity: 66%
Barometer: 29.90 inHg , 1012.5 hPa
Clouds: Mostly cloudy
Visibility: 10 miles , 16 km
Cloud details: Partly cloudy 7500 ft
Mostly cloudy 9500 ft
Mostly cloudy 11000 ft
2018/06/20 16:35 KDCY 201635Z AUTO 29006KT 10SM SCT075 BKN095 BKN110 28/21 A2990 RMK AO2 T02820210
 
KGEZ - Shelbyville, Indiana, USA
Distance from station: ENE 52mi, 83km
Updated: Wed, 20-Jun-2018 12:11pm EDT
Mostly cloudy
Mostly cloudy
 Wind from W
Wind: W 9 mph , 15 km/h
Temperature: 81°F , 27°C
Heat Index: 85°F , 29°C
Dew Point: 70°F , 21°C
Humidity: 70%
Barometer: 29.89 inHg , 1012.2 hPa
Clouds: Mostly cloudy
Visibility: 10 miles , 16 km
Cloud details: Mostly cloudy 2600 ft
Mostly cloudy 3300 ft
2018/06/20 16:11 KGEZ 201611Z AUTO 26008KT 10SM BKN026 BKN033 27/21 A2989 RMK AO2 T02720206
KRSV - Robinson Muni, Illinois, USA
Distance from station: WSW 55mi, 88km
Updated: Wed, 20-Jun-2018 12:35pm EDT
Partly cloudy
Partly cloudy
 Wind from W
Wind: W 6 mph , 9 km/h
Temperature: 79°F , 26°C
Dew Point: 73°F , 23°C
Humidity: 84%
Barometer: 29.91 inHg , 1012.9 hPa
Clouds: Partly cloudy
Visibility: 10 miles , 16 km
Cloud details: Partly cloudy 11000 ft
2018/06/20 16:35 KRSV 201635Z AUTO 27005KT 10SM SCT110 26/23 A2991 RMK AO2 T02630226
 
KTYQ - Indianapolis Exc, Indiana, USA
Distance from station: NNE 56mi, 90km
Updated: Wed, 20-Jun-2018 12:35pm EDT
Partly cloudy
Partly cloudy
 Wind from WNW
Wind: WNW 8 mph , 13 km/h
Temperature: 77°F , 25°C
Dew Point: 72°F , 22°C
Humidity: 83%
Barometer: 29.90 inHg , 1012.5 hPa
Clouds: Partly cloudy
Visibility: 10 miles , 16 km
Cloud details: Partly cloudy 1700 ft
Partly cloudy 2600 ft
Partly cloudy 3100 ft
2018/06/20 16:35 KTYQ 201635Z AUTO 30007KT 10SM SCT017 SCT026 SCT031 25/22 A2990 RMK AO2 T02520220
KMQJ - Indianapolis Reg, Indiana, USA
Distance from station: NE 57mi, 92km
Updated: Wed, 20-Jun-2018 12:37pm EDT
Mostly cloudy
Mostly cloudy
 Wind from W
Wind: W 10 mph , 17 km/h
Temperature: 79°F , 26°C
Dew Point: 73°F , 23°C
Humidity: 84%
Barometer: 29.90 inHg , 1012.5 hPa
Clouds: Mostly cloudy
Visibility: 10 miles , 16 km
Cloud details: Partly cloudy 2500 ft
Mostly cloudy 3000 ft
2018/06/20 16:37 KMQJ 201637Z AUTO 28009KT 10SM SCT025 BKN030 26/23 A2990 RMK AO1
 
KPRG - Paris, Illinois, USA
Distance from station: WNW 59mi, 94km
Updated: Wed, 20-Jun-2018 12:35pm EDT
Mostly cloudy
Mostly cloudy
 Wind from WNW
Wind: WNW 5 mph , 7 km/h
Temperature: 81°F , 27°C
Heat Index: 86°F , 30°C
Dew Point: 73°F , 23°C
Humidity: 79%
Barometer: 29.91 inHg , 1012.9 hPa
Clouds: Mostly cloudy
Visibility: 10 miles , 16 km
Cloud details: Mostly cloudy 2200 ft
Mostly cloudy 2900 ft
Mostly cloudy 7500 ft
2018/06/20 16:35 KPRG 201635Z AUTO 29004KT 10SM BKN022 BKN029 BKN075 27/23 A2991 RMK AO2 T02650228
KLWV - Lawrenceville, Illinois, USA
Distance from station: SW 61mi, 98km
Updated: Wed, 20-Jun-2018 12:42pm EDT
Mostly cloudy
Mostly cloudy
 Wind from WNW
Wind: WNW 10 mph , 17 km/h
Temperature: 82°F , 28°C
Heat Index: 86°F , 30°C
Dew Point: 72°F , 22°C
Humidity: 70%
Barometer: 29.90 inHg , 1012.5 hPa
Clouds: Mostly cloudy
Visibility: 10 miles , 16 km
Cloud details: Mostly cloudy 2600 ft
Mostly cloudy 7500 ft
2018/06/20 16:42 KLWV 201642Z AUTO 29009KT 10SM BKN026 BKN075 28/22 A2990 RMK AO2 T02830217
 
KAJG - Mount Carmel, Illinois, USA
Distance from station: SW 73mi, 117km
Updated: Wed, 20-Jun-2018 12:35pm EDT
Mostly cloudy
Mostly cloudy
 Wind from WSW
Wind: WSW 5 mph , 7 km/h
Temperature: 82°F , 28°C
Heat Index: 86°F , 30°C
Dew Point: 72°F , 22°C
Humidity: 70%
Barometer: 29.90 inHg , 1012.5 hPa
Clouds: Mostly cloudy
Visibility: 10 miles , 16 km
Cloud details: Mostly cloudy 3000 ft
Mostly cloudy 8000 ft
2018/06/20 16:35 KAJG 201635Z AUTO 24004KT 10SM BKN030 BKN080 28/22 A2990 RMK AO2 T02840223
KHNB - Huntingburg, Indiana, USA
Distance from station: S 74mi, 119km
Updated: Wed, 20-Jun-2018 11:56am EDT
Clear
Clear
 Wind from WSW
Wind: WSW 6 mph , 9 km/h
Temperature: 84°F , 29°C
Heat Index: 90°F , 32°C
Dew Point: 73°F , 23°C
Humidity: 70%
Barometer: 29.92 inHg , 1013.2 hPa
Clouds: Clear
Visibility: 10 miles , 16 km
2018/06/20 15:56 KHNB 201556Z AUTO 24005KT 10SM CLR 29/23 A2992 RMK AO2 SLP126 T02890228
 
KLAF - Lafayette, Indiana, USA
Distance from station: N 78mi, 126km
Updated: Wed, 20-Jun-2018 11:54am EDT
Overcast
Overcast
 Wind from W
Wind: W 6 mph , 9 km/h
Temperature: 75°F , 24°C
Dew Point: 72°F , 22°C
Humidity: 89%
Barometer: 29.89 inHg , 1012.2 hPa
Clouds: Overcast
Visibility: 10 miles , 16 km
Cloud details: Overcast 1000 ft
2018/06/20 15:54 KLAF 201554Z 27005KT 10SM OVC010 24/22 A2989 RMK AO2 SLP116 T02390217
KDNV - Danville, Illinois, USA
Distance from station: NW 79mi, 126km
Updated: Wed, 20-Jun-2018 12:35pm EDT
Mostly cloudy
Mostly cloudy
 Wind from W
Wind: W 9 mph , 15 km/h
Temperature: 81°F , 27°C
Heat Index: 86°F , 30°C
Dew Point: 73°F , 23°C
Humidity: 79%
Barometer: 29.87 inHg , 1011.5 hPa
Clouds: Mostly cloudy
Visibility: 10 miles , 16 km
Cloud details: Partly cloudy 2100 ft
Mostly cloudy 2700 ft
Mostly cloudy 3400 ft
2018/06/20 16:35 KDNV 201635Z AUTO 27008KT 10SM SCT021 BKN027 BKN034 27/23 A2987 RMK AO2 T02670229
 
KAID - Anderson Municip, Indiana, USA
Distance from station: NE 81mi, 130km
Updated: Wed, 20-Jun-2018 10:47am EDT
NOT Current
Partly cloudy
Partly cloudy
 Wind from W
Wind: W 12 mph , 19 km/h
Temperature: 75°F , 24°C
Dew Point: 68°F , 20°C
Humidity: 78%
Barometer: 29.90 inHg , 1012.5 hPa
Clouds: Partly cloudy
Visibility: 10 miles , 16 km
Cloud details: Partly cloudy 1700 ft
2018/06/20 14:47 KAID 201447Z 27010KT 10SM SCT017OVC024 24/20 A2990
KMTO - Mattoon/Charlest, Illinois, USA
Distance from station: W 85mi, 136km
Updated: Wed, 20-Jun-2018 12:34pm EDT
Mostly cloudy
Mostly cloudy
 Wind from SSW
Wind: SSW 7 mph , 11 km/h
Temperature: 79°F , 26°C
Dew Point: 73°F , 23°C
Humidity: 84%
Barometer: 29.89 inHg , 1012.2 hPa
Clouds: Mostly cloudy
Visibility: 10 miles , 16 km
Cloud details: Mostly cloudy 1600 ft
Mostly cloudy 2000 ft
2018/06/20 16:34 KMTO 201634Z AUTO 21006KT 10SM BKN016 BKN020 26/23 A2989 RMK AO2 T02560233
 
KOLY - Olney-Noble, Illinois, USA
Distance from station: WSW 89mi, 144km
Updated: Wed, 20-Jun-2018 12:35pm EDT
Mostly cloudy
Mostly cloudy
 Wind from W
Wind: W 3 mph , 6 km/h
Temperature: 82°F , 28°C
Heat Index: 89°F , 32°C
Dew Point: 75°F , 24°C
Humidity: 79%
Barometer: 29.91 inHg , 1012.9 hPa
Clouds: Mostly cloudy
Visibility: 10 miles , 16 km
Cloud details: Mostly cloudy 2400 ft
2018/06/20 16:35 KOLY 201635Z AUTO 26003KT 10SM BKN024 28/24 A2991 RMK AO2 T02770244
KOKK - Kokomo, Indiana, USA
Distance from station: NNE 92mi, 148km
Updated: Wed, 20-Jun-2018 11:56am EDT
Overcast
Overcast
 Wind from W
Wind: W 9 mph , 15 km/h
Temperature: 77°F , 25°C
Dew Point: 72°F , 22°C
Humidity: 83%
Barometer: 29.89 inHg , 1012.2 hPa
Clouds: Overcast
Visibility: 10 miles , 16 km
Cloud details: Mostly cloudy 1200 ft
Overcast 1800 ft
2018/06/20 15:56 KOKK 201556Z AUTO 27008KT 10SM BKN012 OVC018 25/22 A2989 RMK AO2 SLP119 T02500222